createdAt,value
2016-03-12T00:00:50.579Z,1023.55
2016-03-12T00:01:50.628Z,1023.56
2016-03-12T00:02:50.678Z,1023.54
2016-03-12T00:03:50.728Z,1023.56
2016-03-12T00:04:50.776Z,1023.54
2016-03-12T00:05:50.826Z,1023.57
2016-03-12T00:06:50.885Z,1023.57
2016-03-12T00:07:50.927Z,1023.58
2016-03-12T00:08:50.976Z,1023.54
2016-03-12T00:09:51.026Z,1023.53
2016-03-12T00:10:51.075Z,1023.54
2016-03-12T00:11:51.126Z,1023.53
2016-03-12T00:12:51.174Z,1023.54
2016-03-12T00:13:51.224Z,1023.53
2016-03-12T00:14:51.273Z,1023.53
2016-03-12T00:15:51.323Z,1023.53
2016-03-12T00:16:51.372Z,1023.51
2016-03-12T00:17:51.423Z,1023.51
2016-03-12T00:18:51.472Z,1023.54
2016-03-12T00:19:51.522Z,1023.51
2016-03-12T00:20:51.570Z,1023.53
2016-03-12T00:21:51.620Z,1023.49
2016-03-12T00:22:51.670Z,1023.52
2016-03-12T00:23:51.719Z,1023.51
2016-03-12T00:24:51.769Z,1023.51
2016-03-12T00:25:51.834Z,1023.48
2016-03-12T00:26:51.869Z,1023.51
2016-03-12T00:27:51.918Z,1023.53
2016-03-12T00:28:51.983Z,1023.49
2016-03-12T00:29:52.032Z,1023.49
2016-03-12T00:30:52.083Z,1023.46
2016-03-12T00:31:52.132Z,1023.48
2016-03-12T00:32:52.182Z,1023.49
2016-03-12T00:33:52.230Z,1023.5
2016-03-12T00:34:52.280Z,1023.53
2016-03-12T00:35:52.330Z,1023.5
2016-03-12T00:36:52.364Z,1023.53
2016-03-12T00:37:52.429Z,1023.56
2016-03-12T00:38:52.479Z,1023.59
2016-03-12T00:39:52.529Z,1023.57
2016-03-12T00:40:52.578Z,1023.59
2016-03-12T00:41:52.627Z,1023.58
2016-03-12T00:42:52.676Z,1023.65
2016-03-12T00:43:52.726Z,1023.64
2016-03-12T00:44:52.776Z,1023.63
2016-03-12T00:45:52.826Z,1023.64
2016-03-12T00:46:52.875Z,1023.67
2016-03-12T00:47:52.925Z,1023.68
2016-03-12T00:48:52.974Z,1023.68
2016-03-12T00:49:53.024Z,1023.67
2016-03-12T00:50:53.073Z,1023.68
2016-03-12T00:51:53.123Z,1023.66
2016-03-12T00:52:53.173Z,1023.68
2016-03-12T00:53:53.223Z,1023.71
2016-03-12T00:54:53.272Z,1023.71
2016-03-12T00:55:53.322Z,1023.66
2016-03-12T00:56:53.402Z,1023.73
2016-03-12T00:57:53.420Z,1023.67
2016-03-12T00:58:53.470Z,1023.7
2016-03-12T00:59:53.519Z,1023.7
2016-03-12T01:00:53.569Z,1023.69
2016-03-12T01:01:53.619Z,1023.68
2016-03-12T01:02:53.683Z,1023.72
2016-03-12T01:03:53.718Z,1023.71
2016-03-12T01:04:53.783Z,1023.7
2016-03-12T01:05:53.816Z,1023.71
2016-03-12T01:06:53.883Z,1023.74
2016-03-12T01:07:53.932Z,1023.7
2016-03-12T01:08:53.966Z,1023.72
2016-03-12T01:09:54.015Z,1023.7
2016-03-12T01:10:54.080Z,1023.69
2016-03-12T01:11:54.130Z,1023.74
2016-03-12T01:12:54.165Z,1023.71
2016-03-12T01:13:54.229Z,1023.72
2016-03-12T01:14:54.279Z,1023.7
2016-03-12T01:15:54.328Z,1023.74
2016-03-12T01:16:54.378Z,1023.74
2016-03-12T01:17:54.428Z,1023.72
2016-03-12T01:18:54.477Z,1023.71
2016-03-12T01:19:54.542Z,1023.71
2016-03-12T01:20:54.576Z,1023.72
2016-03-12T01:21:54.626Z,1023.7
2016-03-12T01:22:54.675Z,1023.66
2016-03-12T01:23:54.725Z,1023.67
2016-03-12T01:24:54.774Z,1023.62
2016-03-12T01:25:54.824Z,1023.64
2016-03-12T01:26:54.873Z,1023.57
2016-03-12T01:27:54.923Z,1023.6
2016-03-12T01:28:54.972Z,1023.6
2016-03-12T01:29:55.022Z,1023.55
2016-03-12T01:30:55.072Z,1023.57
2016-03-12T01:31:55.137Z,1023.49
2016-03-12T01:32:55.186Z,1023.42
2016-03-12T01:33:55.221Z,1023.44
2016-03-12T01:34:55.270Z,1023.44
2016-03-12T01:35:55.319Z,1023.44
2016-03-12T01:36:55.369Z,1023.39
2016-03-12T01:37:55.418Z,1023.44
2016-03-12T01:38:55.468Z,1023.42
2016-03-12T01:39:55.518Z,1023.43
2016-03-12T01:40:55.568Z,1023.43
2016-03-12T01:41:55.617Z,1023.4
2016-03-12T01:42:55.666Z,1023.37
2016-03-12T01:43:55.731Z,1023.37
2016-03-12T01:44:55.781Z,1023.37
2016-03-12T01:45:55.815Z,1023.3
2016-03-12T01:46:55.881Z,1023.32
2016-03-12T01:47:55.929Z,1023.33
2016-03-12T01:48:55.980Z,1023.35
2016-03-12T01:49:56.014Z,1023.37
2016-03-12T01:50:56.079Z,1023.35
2016-03-12T01:51:56.112Z,1023.35
2016-03-12T01:52:56.178Z,1023.38
2016-03-12T01:53:56.228Z,1023.36
2016-03-12T01:54:56.278Z,1023.38
2016-03-12T01:55:56.326Z,1023.38
2016-03-12T01:56:56.375Z,1023.37
2016-03-12T01:57:56.425Z,1023.35
2016-03-12T01:58:56.475Z,1023.34
2016-03-12T01:59:56.525Z,1023.33
2016-03-12T02:00:56.574Z,1023.37
2016-03-12T02:01:56.624Z,1023.34
2016-03-12T02:02:56.674Z,1023.38
2016-03-12T02:03:56.723Z,1023.37
2016-03-12T02:04:56.772Z,1023.35
2016-03-12T02:05:56.822Z,1023.35
2016-03-12T02:06:56.871Z,1023.35
2016-03-12T02:07:56.922Z,1023.32
2016-03-12T02:08:56.971Z,1023.28
2016-03-12T02:09:57.021Z,1023.35
2016-03-12T02:10:57.070Z,1023.33
2016-03-12T02:11:57.119Z,1023.36
2016-03-12T02:12:57.169Z,1023.32
2016-03-12T02:13:57.219Z,1023.3
2016-03-12T02:14:57.268Z,1023.36
2016-03-12T02:15:57.318Z,1023.35
2016-03-12T02:16:57.383Z,1023.35
2016-03-12T02:17:57.418Z,1023.32
2016-03-12T02:18:57.467Z,1023.33
2016-03-12T02:19:57.515Z,1023.3
2016-03-12T02:20:57.565Z,1023.32
2016-03-12T02:21:57.615Z,1023.3
2016-03-12T02:22:57.665Z,1023.31
2016-03-12T02:23:57.714Z,1023.31
2016-03-12T02:24:57.764Z,1023.32
2016-03-12T02:25:57.813Z,1023.31
2016-03-12T02:26:57.878Z,1023.3
2016-03-12T02:27:57.912Z,1023.35
2016-03-12T02:28:57.961Z,1023.32
2016-03-12T02:29:58.012Z,1023.29
2016-03-12T02:30:58.061Z,1023.35
2016-03-12T02:31:58.127Z,1023.34
2016-03-12T02:32:58.175Z,1023.33
2016-03-12T02:33:58.210Z,1023.35
2016-03-12T02:34:58.274Z,1023.35
2016-03-12T02:35:58.325Z,1023.34
2016-03-12T02:36:58.358Z,1023.37
2016-03-12T02:37:58.408Z,1023.38
2016-03-12T02:38:58.473Z,1023.37
2016-03-12T02:39:58.507Z,1023.4
2016-03-12T02:40:58.572Z,1023.38
2016-03-12T02:41:58.621Z,1023.37
2016-03-12T02:42:58.656Z,1023.38
2016-03-12T02:43:58.721Z,1023.39
2016-03-12T02:44:58.771Z,1023.38
2016-03-12T02:45:58.820Z,1023.38
2016-03-12T02:46:58.870Z,1023.36
2016-03-12T02:47:58.919Z,1023.33
2016-03-12T02:48:58.969Z,1023.34
2016-03-12T02:49:59.018Z,1023.35
2016-03-12T02:50:59.068Z,1023.37
2016-03-12T02:51:59.117Z,1023.38
2016-03-12T02:52:59.167Z,1023.34
2016-03-12T02:53:59.216Z,1023.36
2016-03-12T02:54:59.267Z,1023.38
2016-03-12T02:55:59.316Z,1023.38
2016-03-12T02:56:59.365Z,1023.35
2016-03-12T02:57:59.415Z,1023.35
2016-03-12T02:58:59.465Z,1023.36
2016-03-12T02:59:59.514Z,1023.37
2016-03-12T03:00:59.563Z,1023.38
2016-03-12T03:01:59.613Z,1023.43
2016-03-12T03:02:59.663Z,1023.4
2016-03-12T03:03:59.713Z,1023.42
2016-03-12T03:04:59.777Z,1023.44
2016-03-12T03:05:59.827Z,1023.44
2016-03-12T03:06:59.861Z,1023.44
2016-03-12T03:07:59.911Z,1023.49
2016-03-12T03:08:59.960Z,1023.5
2016-03-12T03:10:00.010Z,1023.48
2016-03-12T03:11:00.060Z,1023.45
2016-03-12T03:12:00.110Z,1023.45
2016-03-12T03:13:00.158Z,1023.43
2016-03-12T03:14:00.207Z,1023.42
2016-03-12T03:15:00.257Z,1023.4
2016-03-12T03:16:00.307Z,1023.4
2016-03-12T03:17:00.357Z,1023.38
2016-03-12T03:18:00.406Z,1023.38
2016-03-12T03:19:00.456Z,1023.41
2016-03-12T03:20:00.505Z,1023.41
2016-03-12T03:21:00.555Z,1023.35
2016-03-12T03:22:00.604Z,1023.39
2016-03-12T03:23:00.654Z,1023.4
2016-03-12T03:24:00.704Z,1023.42
2016-03-12T03:25:00.753Z,1023.42
2016-03-12T03:26:00.803Z,1023.45
2016-03-12T03:27:00.852Z,1023.48
2016-03-12T03:28:00.902Z,1023.49
2016-03-12T03:29:00.951Z,1023.46
2016-03-12T03:30:01.001Z,1023.46
2016-03-12T03:31:01.050Z,1023.51
2016-03-12T03:32:01.100Z,1023.51
2016-03-12T03:33:01.166Z,1023.49
2016-03-12T03:34:01.200Z,1023.53
2016-03-12T03:35:01.249Z,1023.55
2016-03-12T03:36:01.299Z,1023.52
2016-03-12T03:37:01.348Z,1023.5
2016-03-12T03:38:01.413Z,1023.52
2016-03-12T03:39:01.447Z,1023.53
2016-03-12T03:40:01.496Z,1023.56
2016-03-12T03:41:01.547Z,1023.56
2016-03-12T03:42:01.596Z,1023.57
2016-03-12T03:43:01.646Z,1023.58
2016-03-12T03:44:01.695Z,1023.57
2016-03-12T03:45:01.744Z,1023.58
2016-03-12T03:46:01.794Z,1023.57
2016-03-12T03:47:01.844Z,1023.53
2016-03-12T03:48:01.893Z,1023.53
2016-03-12T03:49:01.959Z,1023.54
2016-03-12T03:50:01.993Z,1023.53
2016-03-12T03:51:02.057Z,1023.54
2016-03-12T03:52:02.091Z,1023.47
2016-03-12T03:53:02.156Z,1023.5
2016-03-12T03:54:02.190Z,1023.51
2016-03-12T03:55:02.256Z,1023.55
2016-03-12T03:56:02.305Z,1023.56
2016-03-12T03:57:02.355Z,1023.58
2016-03-12T03:58:02.404Z,1023.56
2016-03-12T03:59:02.454Z,1023.56
2016-03-12T04:00:02.503Z,1023.59
2016-03-12T04:01:02.537Z,1023.57
2016-03-12T04:02:02.603Z,1023.61
2016-03-12T04:03:02.653Z,1023.63
2016-03-12T04:04:02.702Z,1023.62
2016-03-12T04:05:02.751Z,1023.63
2016-03-12T04:06:02.801Z,1023.66
2016-03-12T04:07:02.850Z,1023.63
2016-03-12T04:08:02.900Z,1023.68
2016-03-12T04:09:02.949Z,1023.7
2016-03-12T04:10:02.999Z,1023.67
2016-03-12T04:11:03.049Z,1023.69
2016-03-12T04:12:03.099Z,1023.69
2016-03-12T04:13:03.148Z,1023.67
2016-03-12T04:14:03.197Z,1023.7
2016-03-12T04:15:03.247Z,1023.7
2016-03-12T04:16:03.296Z,1023.71
2016-03-12T04:17:03.346Z,1023.71
2016-03-12T04:18:03.395Z,1023.71
2016-03-12T04:19:03.446Z,1023.75
2016-03-12T04:20:03.495Z,1023.71
2016-03-12T04:21:03.545Z,1023.71
2016-03-12T04:22:03.593Z,1023.73
2016-03-12T04:23:03.643Z,1023.74
2016-03-12T04:24:03.693Z,1023.77
2016-03-12T04:25:03.742Z,1023.78
2016-03-12T04:26:03.793Z,1023.77
2016-03-12T04:27:03.842Z,1023.78
2016-03-12T04:28:03.892Z,1023.77
2016-03-12T04:29:03.941Z,1023.76
2016-03-12T04:30:03.990Z,1023.76
2016-03-12T04:31:04.040Z,1023.76
2016-03-12T04:32:04.090Z,1023.77
2016-03-12T04:33:04.139Z,1023.78
2016-03-12T04:34:04.188Z,1023.76
2016-03-12T04:35:04.238Z,1023.77
2016-03-12T04:36:04.288Z,1023.78
2016-03-12T04:37:04.338Z,1023.77
2016-03-12T04:38:04.386Z,1023.79
2016-03-12T04:39:04.437Z,1023.78
2016-03-12T04:40:04.486Z,1023.8
2016-03-12T04:41:04.536Z,1023.8
2016-03-12T04:42:04.585Z,1023.83
2016-03-12T04:43:04.635Z,1023.8
2016-03-12T04:44:04.700Z,1023.82
2016-03-12T04:45:04.734Z,1023.78
2016-03-12T04:46:04.783Z,1023.83
2016-03-12T04:47:04.832Z,1023.81
2016-03-12T04:48:04.883Z,1023.8
2016-03-12T04:49:04.932Z,1023.82
2016-03-12T04:50:04.982Z,1023.83
2016-03-12T04:51:05.032Z,1023.87
2016-03-12T04:52:05.082Z,1023.86
2016-03-12T04:53:05.131Z,1023.88
2016-03-12T04:54:05.179Z,1023.89
2016-03-12T04:55:05.229Z,1023.89
2016-03-12T04:56:05.279Z,1023.88
2016-03-12T04:57:05.329Z,1023.89
2016-03-12T04:58:05.379Z,1023.9
2016-03-12T04:59:05.428Z,1023.9
2016-03-12T05:00:05.478Z,1023.9
2016-03-12T05:01:05.543Z,1023.91
2016-03-12T05:02:05.576Z,1023.93
2016-03-12T05:03:05.626Z,1023.93
2016-03-12T05:04:05.676Z,1023.97
2016-03-12T05:05:05.725Z,1023.97
2016-03-12T05:06:05.775Z,1023.99
2016-03-12T05:07:05.827Z,1024
2016-03-12T05:08:05.876Z,1024.05
2016-03-12T05:09:05.926Z,1024.05
2016-03-12T05:10:05.974Z,1024.03
2016-03-12T05:11:06.024Z,1024.07
2016-03-12T05:12:06.073Z,1024.03
2016-03-12T05:13:06.124Z,1024.05
2016-03-12T05:14:06.173Z,1024.02
2016-03-12T05:15:06.223Z,1024.06
2016-03-12T05:16:06.272Z,1024.06
2016-03-12T05:17:06.322Z,1024.1
2016-03-12T05:18:06.365Z,1024.09
2016-03-12T05:19:06.400Z,1024.11
2016-03-12T05:20:06.437Z,1024.12
2016-03-12T05:21:06.473Z,1024.12
2016-03-12T05:22:06.509Z,1024.15
2016-03-12T05:23:06.550Z,1024.15
2016-03-12T05:24:06.595Z,1024.13
2016-03-12T05:25:06.641Z,1024.19
2016-03-12T05:26:06.684Z,1024.2
2016-03-12T05:27:06.729Z,1024.14
2016-03-12T05:28:06.776Z,1024.17
2016-03-12T05:29:06.824Z,1024.19
2016-03-12T05:30:06.871Z,1024.2
2016-03-12T05:31:06.919Z,1024.23
2016-03-12T05:32:06.967Z,1024.21
2016-03-12T05:33:07.015Z,1024.21
2016-03-12T05:34:07.063Z,1024.24
2016-03-12T05:35:07.112Z,1024.22
2016-03-12T05:36:07.160Z,1024.23
2016-03-12T05:37:07.209Z,1024.21
2016-03-12T05:38:07.259Z,1024.21
2016-03-12T05:39:07.309Z,1024.17
2016-03-12T05:40:07.358Z,1024.23
2016-03-12T05:41:07.409Z,1024.21
2016-03-12T05:42:07.489Z,1024.26
2016-03-12T05:43:07.507Z,1024.21
2016-03-12T05:44:07.556Z,1024.21
2016-03-12T05:45:07.606Z,1024.24
2016-03-12T05:46:07.656Z,1024.29
2016-03-12T05:47:07.705Z,1024.28
2016-03-12T05:48:07.754Z,1024.27
2016-03-12T05:49:07.804Z,1024.29
2016-03-12T05:50:07.853Z,1024.32
2016-03-12T05:51:07.903Z,1024.33
2016-03-12T05:52:07.952Z,1024.35
2016-03-12T05:53:08.002Z,1024.35
2016-03-12T05:54:08.052Z,1024.35
2016-03-12T05:55:08.102Z,1024.36
2016-03-12T05:56:08.151Z,1024.35
2016-03-12T05:57:08.201Z,1024.39
2016-03-12T05:58:08.250Z,1024.4
2016-03-12T05:59:08.300Z,1024.37
2016-03-12T06:00:08.349Z,1024.44
2016-03-12T06:01:08.398Z,1024.42
2016-03-12T06:02:08.449Z,1024.39
2016-03-12T06:03:08.498Z,1024.4
2016-03-12T06:04:08.548Z,1024.43
2016-03-12T06:05:08.598Z,1024.44
2016-03-12T06:06:08.647Z,1024.49
2016-03-12T06:07:08.696Z,1024.49
2016-03-12T06:08:08.746Z,1024.5
2016-03-12T06:09:08.795Z,1024.48
2016-03-12T06:10:08.845Z,1024.46
2016-03-12T06:11:08.895Z,1024.45
2016-03-12T06:12:08.944Z,1024.46
2016-03-12T06:13:08.994Z,1024.42
2016-03-12T06:14:09.042Z,1024.46
2016-03-12T06:15:09.093Z,1024.45
2016-03-12T06:16:09.142Z,1024.46
2016-03-12T06:17:09.192Z,1024.48
2016-03-12T06:18:09.242Z,1024.48
2016-03-12T06:19:09.306Z,1024.51
2016-03-12T06:20:09.341Z,1024.47
2016-03-12T06:21:09.390Z,1024.5
2016-03-12T06:22:09.439Z,1024.48
2016-03-12T06:23:09.489Z,1024.47
2016-03-12T06:24:09.539Z,1024.48
2016-03-12T06:25:09.588Z,1024.51
2016-03-12T06:26:09.638Z,1024.47
2016-03-12T06:27:09.688Z,1024.45
2016-03-12T06:28:09.738Z,1024.47
2016-03-12T06:29:09.802Z,1024.48
2016-03-12T06:30:09.836Z,1024.46
2016-03-12T06:31:09.886Z,1024.47
2016-03-12T06:32:09.935Z,1024.48
2016-03-12T06:33:09.985Z,1024.46
2016-03-12T06:34:10.034Z,1024.46
2016-03-12T06:35:10.085Z,1024.5
2016-03-12T06:36:10.134Z,1024.49
2016-03-12T06:37:10.184Z,1024.46
2016-03-12T06:38:10.232Z,1024.46
2016-03-12T06:39:10.298Z,1024.45
2016-03-12T06:40:10.332Z,1024.42
2016-03-12T06:41:10.397Z,1024.41
2016-03-12T06:42:10.431Z,1024.39
2016-03-12T06:43:10.481Z,1024.43
2016-03-12T06:44:10.531Z,1024.4
2016-03-12T06:45:10.580Z,1024.4
2016-03-12T06:46:10.629Z,1024.4
2016-03-12T06:47:10.679Z,1024.39
2016-03-12T06:48:10.729Z,1024.36
2016-03-12T06:49:10.778Z,1024.35
2016-03-12T06:50:10.827Z,1024.36
2016-03-12T06:51:10.877Z,1024.34
2016-03-12T06:52:10.942Z,1024.34
2016-03-12T06:53:10.992Z,1024.35
2016-03-12T06:54:11.041Z,1024.34
2016-03-12T06:55:11.075Z,1024.35
2016-03-12T06:56:11.125Z,1024.38
2016-03-12T06:57:11.174Z,1024.39
2016-03-12T06:58:11.224Z,1024.41
2016-03-12T06:59:11.273Z,1024.44
2016-03-12T07:00:11.324Z,1024.42
2016-03-12T07:01:11.373Z,1024.39
2016-03-12T07:02:11.422Z,1024.43
2016-03-12T07:03:11.471Z,1024.46
2016-03-12T07:04:11.521Z,1024.46
2016-03-12T07:05:11.571Z,1024.42
2016-03-12T07:06:11.620Z,1024.44
2016-03-12T07:07:11.686Z,1024.46
2016-03-12T07:08:11.720Z,1024.48
2016-03-12T07:09:11.770Z,1024.51
2016-03-12T07:10:11.818Z,1024.5
2016-03-12T07:11:11.915Z,1024.51
2016-03-12T07:12:11.918Z,1024.51
2016-03-12T07:13:11.967Z,1024.51
2016-03-12T07:14:12.017Z,1024.48
2016-03-12T07:15:12.066Z,1024.52
2016-03-12T07:16:12.132Z,1024.52
2016-03-12T07:17:12.166Z,1024.53
2016-03-12T07:18:12.215Z,1024.53
2016-03-12T07:19:12.265Z,1024.56
2016-03-12T07:20:12.315Z,1024.6
2016-03-12T07:21:12.364Z,1024.58
2016-03-12T07:22:12.413Z,1024.59
2016-03-12T07:23:12.463Z,1024.6
2016-03-12T07:24:12.513Z,1024.59
2016-03-12T07:25:12.563Z,1024.6
2016-03-12T07:26:12.611Z,1024.61
2016-03-12T07:27:12.661Z,1024.65
2016-03-12T07:28:12.711Z,1024.63
2016-03-12T07:29:12.761Z,1024.66
2016-03-12T07:30:12.810Z,1024.68
2016-03-12T07:31:12.860Z,1024.73
2016-03-12T07:32:12.910Z,1024.68
2016-03-12T07:33:12.959Z,1024.71
2016-03-12T07:34:13.008Z,1024.71
2016-03-12T07:35:13.057Z,1024.69
2016-03-12T07:36:13.108Z,1024.71
2016-03-12T07:37:13.157Z,1024.73
2016-03-12T07:38:13.207Z,1024.71
2016-03-12T07:39:13.256Z,1024.73
2016-03-12T07:40:13.306Z,1024.73
2016-03-12T07:41:13.356Z,1024.72
2016-03-12T07:42:13.404Z,1024.72
2016-03-12T07:43:13.455Z,1024.72
2016-03-12T07:44:13.504Z,1024.71
2016-03-12T07:45:13.554Z,1024.71
2016-03-12T07:46:13.603Z,1024.74
2016-03-12T07:47:13.653Z,1024.75
2016-03-12T07:48:13.703Z,1024.77
2016-03-12T07:49:13.752Z,1024.78
2016-03-12T07:50:13.801Z,1024.79
2016-03-12T07:51:13.850Z,1024.76
2016-03-12T07:52:13.900Z,1024.75
2016-03-12T07:53:13.950Z,1024.75
2016-03-12T07:54:13.999Z,1024.76
2016-03-12T07:55:14.050Z,1024.79
2016-03-12T07:56:14.114Z,1024.8
2016-03-12T07:57:14.149Z,1024.76
2016-03-12T07:58:14.197Z,1024.78
2016-03-12T07:59:14.247Z,1024.79
2016-03-12T08:00:14.297Z,1024.84
2016-03-12T08:01:14.346Z,1024.84
2016-03-12T08:02:14.427Z,1024.81
2016-03-12T08:03:14.445Z,1024.85
2016-03-12T08:04:14.496Z,1024.84
2016-03-12T08:05:14.545Z,1024.85
2016-03-12T08:06:14.594Z,1024.86
2016-03-12T08:07:14.644Z,1024.89
2016-03-12T08:08:14.694Z,1024.88
2016-03-12T08:09:15.384Z,1024.9
2016-03-12T08:10:14.793Z,1024.89
2016-03-12T08:11:14.842Z,1024.88
2016-03-12T08:12:14.892Z,1024.9
2016-03-12T08:13:14.942Z,1024.9
2016-03-12T08:14:14.991Z,1024.9
2016-03-12T08:15:15.040Z,1024.87
2016-03-12T08:16:15.090Z,1024.89
2016-03-12T08:17:15.140Z,1024.87
2016-03-12T08:18:15.189Z,1024.88
2016-03-12T08:19:15.239Z,1024.88
2016-03-12T08:20:15.289Z,1024.92
2016-03-12T08:21:15.338Z,1024.95
2016-03-12T08:22:15.387Z,1024.91
2016-03-12T08:23:15.437Z,1024.95
2016-03-12T08:24:15.486Z,1024.91
2016-03-12T08:25:15.536Z,1024.95
2016-03-12T08:26:15.586Z,1024.94
2016-03-12T08:27:15.635Z,1024.94
2016-03-12T08:28:15.685Z,1024.95
2016-03-12T08:29:15.735Z,1025.01
2016-03-12T08:30:15.783Z,1024.98
2016-03-12T08:31:15.834Z,1025
2016-03-12T08:32:15.883Z,1024.98
2016-03-12T08:33:15.933Z,1025.03
2016-03-12T08:34:15.982Z,1025.03
2016-03-12T08:35:16.032Z,1025.04
2016-03-12T08:36:16.082Z,1025.06
2016-03-12T08:37:16.131Z,1025.12
2016-03-12T08:38:16.180Z,1025.15
2016-03-12T08:39:16.230Z,1025.08
2016-03-12T08:40:16.280Z,1025.12
2016-03-12T08:41:16.345Z,1025.08
2016-03-12T08:42:16.379Z,1025.12
2016-03-12T08:43:16.429Z,1025.14
2016-03-12T08:44:16.478Z,1025.12
2016-03-12T08:45:16.527Z,1025.07
2016-03-12T08:46:16.576Z,1025.12
2016-03-12T08:47:16.626Z,1025.15
2016-03-12T08:48:16.676Z,1025.17
2016-03-12T08:49:16.725Z,1025.13
2016-03-12T08:50:16.775Z,1025.11
2016-03-12T08:51:16.825Z,1025.1
2016-03-12T08:52:16.875Z,1025.07
2016-03-12T08:53:16.924Z,1025.1
2016-03-12T08:54:16.973Z,1025.05
2016-03-12T08:55:17.023Z,1025.09
2016-03-12T08:56:17.072Z,1025.07
2016-03-12T08:57:17.122Z,1025.1
2016-03-12T08:58:17.171Z,1025.13
2016-03-12T08:59:17.222Z,1025.09
2016-03-12T09:00:17.271Z,1025.08
2016-03-12T09:01:17.321Z,1025.09
2016-03-12T09:02:17.369Z,1025.07
2016-03-12T09:03:17.419Z,1025.1
2016-03-12T09:04:17.469Z,1025.1
2016-03-12T09:05:17.518Z,1025.09
2016-03-12T09:06:17.569Z,1025.12
2016-03-12T09:07:17.618Z,1025.07
2016-03-12T09:08:17.668Z,1025.11
2016-03-12T09:09:17.717Z,1025.09
2016-03-12T09:10:17.766Z,1025.14
2016-03-12T09:11:17.816Z,1025.05
2016-03-12T09:12:17.865Z,1025.13
2016-03-12T09:13:17.899Z,1025.16
2016-03-12T09:14:17.964Z,1025.14
2016-03-12T09:15:18.015Z,1025.14
2016-03-12T09:16:18.048Z,1025.1
2016-03-12T09:17:18.114Z,1025.17
2016-03-12T09:18:18.163Z,1025.17
2016-03-12T09:19:18.212Z,1025.14
2016-03-12T09:20:18.262Z,1025.18
2016-03-12T09:21:18.312Z,1025.16
2016-03-12T09:22:18.362Z,1025.21
2016-03-12T09:23:18.395Z,1025.17
2016-03-12T09:24:18.445Z,1025.16
2016-03-12T09:25:18.513Z,1025.2
2016-03-12T09:26:18.562Z,1025.15
2016-03-12T09:27:18.611Z,1025.21
2016-03-12T09:28:18.662Z,1025.22
2016-03-12T09:29:18.711Z,1025.2
2016-03-12T09:30:18.761Z,1025.23
2016-03-12T09:31:18.810Z,1025.21
2016-03-12T09:32:18.860Z,1025.21
2016-03-12T09:33:18.910Z,1025.25
2016-03-12T09:34:18.943Z,1025.2
2016-03-12T09:35:19.007Z,1025.2
2016-03-12T09:36:19.057Z,1025.18
2016-03-12T09:37:19.091Z,1025.21
2016-03-12T09:38:19.141Z,1025.17
2016-03-12T09:39:19.190Z,1025.21
2016-03-12T09:40:19.241Z,1025.18
2016-03-12T09:41:19.290Z,1025.17
2016-03-12T09:42:19.339Z,1025.13
2016-03-12T09:43:19.404Z,1025.13
2016-03-12T09:44:19.454Z,1025.13
2016-03-12T09:45:19.504Z,1025.12
2016-03-12T09:46:19.537Z,1025.14
2016-03-12T09:47:19.587Z,1025.11
2016-03-12T09:48:19.637Z,1025.11
2016-03-12T09:49:19.687Z,1025.14
2016-03-12T09:50:19.751Z,1025.12
2016-03-12T09:51:19.786Z,1025.13
2016-03-12T09:52:19.836Z,1025.09
2016-03-12T09:53:19.884Z,1025.18
2016-03-12T09:54:19.934Z,1025.14
2016-03-12T09:55:20.000Z,1025.13
2016-03-12T09:56:20.049Z,1025.13
2016-03-12T09:57:20.083Z,1025.13
2016-03-12T09:58:20.147Z,1025.09
2016-03-12T09:59:20.182Z,1025.09
2016-03-12T10:00:20.232Z,1025.09
2016-03-12T10:01:20.313Z,1025.05
2016-03-12T10:02:20.330Z,1025.07
2016-03-12T10:03:20.380Z,1025.09
2016-03-12T10:04:20.430Z,1025.05
2016-03-12T10:05:20.479Z,1025.04
2016-03-12T10:06:20.529Z,1025.07
2016-03-12T10:07:20.588Z,1025.05
2016-03-12T10:08:20.638Z,1025.03
2016-03-12T10:09:20.687Z,1025.01
2016-03-12T10:10:20.737Z,1025.01
2016-03-12T10:11:20.787Z,1024.99
2016-03-12T10:12:20.836Z,1025.02
2016-03-12T10:13:20.886Z,1025.05
2016-03-12T10:14:20.936Z,1025.01
2016-03-12T10:15:20.985Z,1025.03
2016-03-12T10:16:21.034Z,1025.05
2016-03-12T10:17:21.084Z,1025.03
2016-03-12T10:18:21.134Z,1025.03
2016-03-12T10:19:21.183Z,1025.02
2016-03-12T10:20:21.217Z,1025
2016-03-12T10:21:21.283Z,1024.97
2016-03-12T10:22:21.333Z,1025.01
2016-03-12T10:23:21.381Z,1025.01
2016-03-12T10:24:21.430Z,1025.02
2016-03-12T10:25:21.480Z,1025.01
2016-03-12T10:26:21.514Z,1025.01
2016-03-12T10:27:21.580Z,1025.02
2016-03-12T10:28:21.629Z,1025.03
2016-03-12T10:29:21.680Z,1025
2016-03-12T10:30:21.729Z,1025
2016-03-12T10:31:21.793Z,1025
2016-03-12T10:32:21.827Z,1025.01
2016-03-12T10:33:21.862Z,1024.98
2016-03-12T10:34:21.926Z,1025.06
2016-03-12T10:35:21.976Z,1025.02
2016-03-12T10:36:22.025Z,1025.01
2016-03-12T10:37:22.070Z,1025.02
2016-03-12T10:38:22.119Z,1025
2016-03-12T10:39:22.169Z,1025.01
2016-03-12T10:40:22.217Z,1025.04
2016-03-12T10:41:22.268Z,1025
2016-03-12T10:42:22.317Z,1025.07
2016-03-12T10:43:22.367Z,1025.05
2016-03-12T10:44:22.417Z,1025.03
2016-03-12T10:45:22.466Z,1025.04
2016-03-12T10:46:22.515Z,1025.02
2016-03-12T10:47:22.566Z,1024.98
2016-03-12T10:48:22.614Z,1025.02
2016-03-12T10:49:22.664Z,1025.01
2016-03-12T10:50:22.714Z,1025
2016-03-12T10:51:22.763Z,1025.03
2016-03-12T10:52:22.813Z,1024.99
2016-03-12T10:53:22.862Z,1024.99
2016-03-12T10:54:22.913Z,1024.99
2016-03-12T10:55:22.962Z,1024.94
2016-03-12T10:56:23.011Z,1024.98
2016-03-12T10:57:23.060Z,1024.97
2016-03-12T10:58:23.110Z,1024.95
2016-03-12T10:59:23.160Z,1024.94
2016-03-12T11:00:23.209Z,1024.96
2016-03-12T11:01:23.259Z,1024.97
2016-03-12T11:02:23.308Z,1024.95
2016-03-12T11:03:23.359Z,1024.92
2016-03-12T11:04:23.407Z,1024.95
2016-03-12T11:05:23.457Z,1024.97
2016-03-12T11:06:23.507Z,1024.96
2016-03-12T11:07:23.556Z,1024.98
2016-03-12T11:08:23.606Z,1024.99
2016-03-12T11:09:23.655Z,1025
2016-03-12T11:10:23.706Z,1024.97
2016-03-12T11:11:23.755Z,1025.02
2016-03-12T11:12:23.804Z,1025.03
2016-03-12T11:13:23.853Z,1025.02
2016-03-12T11:14:23.903Z,1025.03
2016-03-12T11:15:23.953Z,1025.02
2016-03-12T11:16:24.002Z,1025.05
2016-03-12T11:17:24.053Z,1025.1
2016-03-12T11:18:24.102Z,1025.07
2016-03-12T11:19:24.151Z,1025.07
2016-03-12T11:20:24.200Z,1025.13
2016-03-12T11:21:24.266Z,1025.09
2016-03-12T11:22:24.290Z,1025.09
2016-03-12T11:23:24.348Z,1025.15
2016-03-12T11:24:24.399Z,1025.1
2016-03-12T11:25:24.436Z,1025.14
2016-03-12T11:26:24.501Z,1025.14
2016-03-12T11:27:24.535Z,1025.15
2016-03-12T11:28:24.585Z,1025.14
2016-03-12T11:29:24.650Z,1025.12
2016-03-12T11:30:24.683Z,1025.15
2016-03-12T11:31:24.732Z,1025.14
2016-03-12T11:32:24.783Z,1025.09
2016-03-12T11:33:24.832Z,1025.14
2016-03-12T11:34:24.882Z,1025.16
2016-03-12T11:35:24.932Z,1025.17
2016-03-12T11:36:24.981Z,1025.13
2016-03-12T11:37:25.031Z,1025.14
2016-03-12T11:38:25.079Z,1025.12
2016-03-12T11:39:25.130Z,1025.1
2016-03-12T11:40:25.179Z,1025.1
2016-03-12T11:41:25.229Z,1025.07
2016-03-12T11:42:25.278Z,1025.13
2016-03-12T11:43:25.328Z,1025.09
2016-03-12T11:44:25.378Z,1025.08
2016-03-12T11:45:25.427Z,1025.08
2016-03-12T11:46:25.477Z,1025.11
2016-03-12T11:47:25.542Z,1025.11
2016-03-12T11:48:25.576Z,1025.06
2016-03-12T11:49:25.625Z,1025.09
2016-03-12T11:50:25.675Z,1025.1
2016-03-12T11:51:25.725Z,1025.1
2016-03-12T11:52:25.774Z,1025.14
2016-03-12T11:53:25.824Z,1025.19
2016-03-12T11:54:25.873Z,1025.13
2016-03-12T11:55:25.922Z,1025.13
2016-03-12T11:56:25.972Z,1025.16
2016-03-12T11:57:26.022Z,1025.15
2016-03-12T11:58:26.088Z,1025.11
2016-03-12T11:59:26.121Z,1025.1
2016-03-12T12:00:26.171Z,1025.07
2016-03-12T12:01:26.221Z,1025.12
2016-03-12T12:02:26.270Z,1025.11
2016-03-12T12:03:26.319Z,1025.06
2016-03-12T12:04:26.368Z,1025.11
2016-03-12T12:05:26.418Z,1025.1
2016-03-12T12:06:26.468Z,1025.09
2016-03-12T12:07:26.517Z,1025.07
2016-03-12T12:08:26.568Z,1025.06
2016-03-12T12:09:26.617Z,1025.07